createdAt,value
2022-09-10T00:01:28.551Z,19.77
2022-09-10T00:03:56.723Z,19.87
2022-09-10T00:06:26.304Z,19.90
2022-09-10T00:08:56.328Z,19.91
2022-09-10T00:11:25.369Z,19.92
2022-09-10T00:13:55.172Z,19.91
2022-09-10T00:16:23.180Z,19.90
2022-09-10T00:18:51.722Z,19.89
2022-09-10T00:21:21.782Z,19.86
2022-09-10T00:23:50.560Z,19.93
2022-09-10T00:26:21.871Z,20.01
2022-09-10T00:28:50.311Z,20.01
2022-09-10T00:31:21.872Z,20.02
2022-09-10T00:33:50.200Z,20.05
2022-09-10T00:36:21.716Z,20.00
2022-09-10T00:38:50.530Z,19.86
2022-09-10T00:41:19.537Z,19.69
2022-09-10T00:43:55.774Z,19.63
2022-09-10T00:46:34.608Z,19.76
2022-09-10T00:49:07.015Z,19.79
2022-09-10T00:51:36.615Z,19.76
2022-09-10T00:54:06.566Z,19.75
2022-09-10T00:56:35.778Z,19.69
2022-09-10T00:59:05.538Z,19.65
2022-09-10T01:01:36.390Z,19.58
2022-09-10T01:04:06.048Z,19.56
2022-09-10T01:06:34.037Z,19.58
2022-09-10T01:09:03.081Z,19.65
2022-09-10T01:11:43.617Z,19.59
2022-09-10T01:14:28.038Z,19.64
2022-09-10T01:17:07.922Z,19.56
2022-09-10T01:19:59.966Z,19.51
2022-09-10T01:22:38.678Z,19.49
2022-09-10T01:25:16.625Z,19.55
2022-09-10T01:27:48.637Z,19.49
2022-09-10T01:30:19.370Z,19.52
2022-09-10T01:32:57.350Z,19.51
2022-09-10T01:35:30.542Z,19.36
2022-09-10T01:38:04.754Z,19.38
2022-09-10T01:40:33.490Z,19.33
2022-09-10T01:43:04.625Z,19.43
2022-09-10T01:45:37.836Z,19.45
2022-09-10T01:48:25.142Z,19.54
2022-09-10T01:51:04.516Z,19.51
2022-09-10T01:53:52.965Z,19.46
2022-09-10T01:56:35.714Z,19.55
2022-09-10T01:59:11.622Z,19.57
2022-09-10T02:01:46.094Z,19.59
2022-09-10T02:04:16.301Z,19.49
2022-09-10T02:06:47.951Z,19.52
2022-09-10T02:09:17.244Z,19.70
2022-09-10T02:11:47.390Z,19.74
2022-09-10T02:14:17.482Z,19.76
2022-09-10T02:16:48.894Z,19.79
2022-09-10T02:19:18.104Z,19.69
2022-09-10T02:21:46.674Z,19.78
2022-09-10T02:24:15.266Z,19.87
2022-09-10T02:26:45.083Z,19.81
2022-09-10T02:29:15.463Z,19.89
2022-09-10T02:31:45.189Z,19.89
2022-09-10T02:34:13.131Z,19.94
2022-09-10T02:36:41.034Z,19.91
2022-09-10T02:39:09.020Z,19.89
2022-09-10T02:41:38.198Z,19.89
2022-09-10T02:44:06.161Z,19.81
2022-09-10T02:46:34.285Z,19.77
2022-09-10T02:49:03.635Z,19.71
2022-09-10T02:51:31.734Z,19.72
2022-09-10T02:53:59.833Z,19.66
2022-09-10T02:56:27.726Z,19.70
2022-09-10T02:58:55.621Z,19.65
2022-09-10T03:01:24.590Z,19.64
2022-09-10T03:03:55.074Z,19.64
2022-09-10T03:06:25.891Z,19.58
2022-09-10T03:08:55.365Z,19.65
2022-09-10T03:11:24.245Z,19.65
2022-09-10T03:13:52.329Z,19.69
2022-09-10T03:16:20.860Z,19.62
2022-09-10T03:18:49.054Z,19.61
2022-09-10T03:21:20.268Z,19.54
2022-09-10T03:23:51.383Z,19.59
2022-09-10T03:26:21.109Z,19.61
2022-09-10T03:28:50.253Z,19.55
2022-09-10T03:31:18.344Z,19.63
2022-09-10T03:33:46.513Z,19.61
2022-09-10T03:36:14.607Z,19.64
2022-09-10T03:38:42.593Z,19.67
2022-09-10T03:41:12.340Z,19.74
2022-09-10T03:43:40.329Z,19.79
2022-09-10T03:46:08.411Z,19.83
2022-09-10T03:48:36.319Z,19.82
2022-09-10T03:51:04.605Z,19.87
2022-09-10T03:53:32.490Z,19.78
2022-09-10T03:56:00.486Z,19.73
2022-09-10T03:58:29.882Z,19.78
2022-09-10T04:00:57.792Z,19.71
2022-09-10T04:03:26.091Z,19.78
2022-09-10T04:05:54.015Z,19.79
2022-09-10T04:08:22.195Z,19.77
2022-09-10T04:10:50.100Z,19.80
2022-09-10T04:13:18.018Z,19.85
2022-09-10T04:15:47.319Z,19.73
2022-09-10T04:18:15.861Z,19.82
2022-09-10T04:20:47.771Z,19.79
2022-09-10T04:23:17.178Z,19.80
2022-09-10T04:25:45.085Z,19.79
2022-09-10T04:28:13.175Z,19.89
2022-09-10T04:30:41.407Z,19.89
2022-09-10T04:33:11.724Z,19.92
2022-09-10T04:35:40.671Z,19.91
2022-09-10T04:38:09.207Z,20.02
2022-09-10T04:40:38.433Z,20.10
2022-09-10T04:43:06.345Z,20.24
2022-09-10T04:45:34.772Z,20.37
2022-09-10T04:48:06.827Z,20.50
2022-09-10T04:50:36.724Z,20.71
2022-09-10T04:53:04.653Z,20.75
2022-09-10T04:55:33.386Z,20.93
2022-09-10T04:58:01.289Z,21.04
2022-09-10T05:00:29.229Z,20.94
2022-09-10T05:02:57.137Z,20.99
2022-09-10T05:05:25.167Z,21.10
2022-09-10T05:07:54.501Z,20.99
2022-09-10T05:10:23.556Z,21.06
2022-09-10T05:12:51.502Z,21.10
2022-09-10T05:15:19.413Z,21.15
2022-09-10T05:17:48.240Z,21.19
2022-09-10T05:20:16.382Z,21.33
2022-09-10T05:22:44.319Z,21.46
2022-09-10T05:25:13.601Z,21.61
2022-09-10T05:27:41.833Z,21.78
2022-09-10T05:30:10.820Z,22.09
2022-09-10T05:32:40.187Z,22.30
2022-09-10T05:35:09.469Z,22.52
2022-09-10T05:37:37.578Z,22.74
2022-09-10T05:40:07.014Z,22.95
2022-09-10T05:42:36.552Z,23.19
2022-09-10T05:45:04.683Z,23.35
2022-09-10T05:47:32.649Z,23.50
2022-09-10T05:50:00.566Z,23.77
2022-09-10T05:52:28.497Z,23.77
2022-09-10T05:54:57.068Z,24.14
2022-09-10T05:57:25.098Z,24.43
2022-09-10T05:59:54.386Z,24.66
2022-09-10T06:02:24.266Z,24.93
2022-09-10T06:04:52.442Z,25.03
2022-09-10T06:07:20.356Z,25.03
2022-09-10T06:09:48.366Z,24.91
2022-09-10T06:12:17.248Z,24.93
2022-09-10T06:14:45.156Z,24.92
2022-09-10T06:17:14.594Z,25.05
2022-09-10T06:19:44.650Z,25.15
2022-09-10T06:22:12.829Z,25.23
2022-09-10T06:24:40.747Z,25.10
2022-09-10T06:27:09.735Z,25.23
2022-09-10T06:29:37.841Z,25.34
2022-09-10T06:32:06.385Z,25.21
2022-09-10T06:34:35.886Z,25.30
2022-09-10T06:37:04.263Z,25.33
2022-09-10T06:39:32.321Z,25.67
2022-09-10T06:42:00.604Z,25.82
2022-09-10T06:44:29.591Z,25.98
2022-09-10T06:47:32.477Z,26.19
2022-09-10T06:49:47.453Z,26.04
2022-09-10T06:52:15.435Z,26.29
2022-09-10T06:54:43.358Z,26.54
2022-09-10T06:57:11.479Z,26.79
2022-09-10T06:59:39.374Z,26.95
2022-09-10T07:02:07.364Z,27.14
2022-09-10T07:04:35.325Z,27.42
2022-09-10T07:07:04.636Z,27.66
2022-09-10T07:09:32.602Z,27.78
2022-09-10T07:12:00.513Z,28.01
2022-09-10T07:14:28.510Z,28.16
2022-09-10T07:16:57.595Z,28.20
2022-09-10T07:19:25.711Z,28.19
2022-09-10T07:21:53.628Z,28.52
2022-09-10T07:24:22.946Z,28.51
2022-09-10T07:26:50.863Z,28.60
2022-09-10T07:29:19.659Z,28.85
2022-09-10T07:31:48.320Z,29.02
2022-09-10T07:34:16.510Z,29.14
2022-09-10T07:36:44.474Z,29.29
2022-09-10T07:39:12.406Z,29.20
2022-09-10T07:41:41.737Z,29.33
2022-09-10T07:44:09.658Z,29.34
2022-09-10T07:46:38.062Z,29.35
2022-09-10T07:49:06.110Z,29.58
2022-09-10T07:51:35.661Z,29.65
2022-09-10T07:54:04.414Z,29.47
2022-09-10T07:56:34.683Z,29.64
2022-09-10T07:59:03.993Z,29.69
2022-09-10T08:01:32.252Z,29.85
2022-09-10T08:04:00.492Z,30.03
2022-09-10T08:06:28.455Z,30.15
2022-09-10T08:08:56.382Z,30.15
2022-09-10T08:11:24.435Z,30.05
2022-09-10T08:13:53.956Z,30.11
2022-09-10T08:16:25.286Z,30.06
2022-09-10T08:18:53.264Z,29.48
2022-09-10T08:21:21.282Z,29.62
2022-09-10T08:23:51.056Z,29.69
2022-09-10T08:26:20.105Z,29.82
2022-09-10T08:28:48.523Z,29.64
2022-09-10T08:31:16.787Z,29.78
2022-09-10T08:33:49.395Z,29.49
2022-09-10T08:36:18.446Z,29.65
2022-09-10T08:38:47.381Z,29.55
2022-09-10T08:41:28.253Z,29.66
2022-09-10T08:43:59.435Z,29.84
2022-09-10T08:46:30.754Z,29.84
2022-09-10T08:49:08.346Z,29.68
2022-09-10T08:51:43.471Z,29.87
2022-09-10T08:54:16.306Z,30.21
2022-09-10T08:56:44.843Z,30.47
2022-09-10T08:59:22.434Z,30.28
2022-09-10T09:01:55.909Z,30.45
2022-09-10T09:04:34.114Z,30.48
2022-09-10T09:07:10.462Z,30.68
2022-09-10T09:09:38.417Z,30.69
2022-09-10T09:12:16.227Z,30.75
2022-09-10T09:14:54.618Z,30.93
2022-09-10T09:17:39.214Z,31.09
2022-09-10T09:20:18.281Z,31.05
2022-09-10T09:22:53.287Z,31.14
2022-09-10T09:25:28.905Z,30.77
2022-09-10T09:27:58.739Z,30.71
2022-09-10T09:30:32.102Z,31.05
2022-09-10T09:33:05.668Z,31.27
2022-09-10T09:35:44.183Z,31.19
2022-09-10T09:38:22.335Z,31.39
2022-09-10T09:40:52.985Z,31.21
2022-09-10T09:43:29.817Z,31.10
2022-09-10T09:45:58.185Z,31.15
2022-09-10T09:48:26.960Z,31.25
2022-09-10T09:51:00.414Z,31.16
2022-09-10T09:53:31.049Z,31.06
2022-09-10T09:56:01.325Z,31.22
2022-09-10T09:58:32.217Z,31.06
2022-09-10T10:01:16.802Z,31.26
2022-09-10T10:03:58.821Z,31.32
2022-09-10T10:06:31.225Z,30.89
2022-09-10T10:09:01.781Z,30.99
2022-09-10T10:11:49.017Z,31.01
2022-09-10T10:14:39.440Z,31.12
2022-09-10T10:17:38.322Z,31.17
2022-09-10T10:20:09.740Z,31.15
2022-09-10T10:22:40.670Z,31.18
2022-09-10T10:25:40.445Z,31.13
2022-09-10T10:28:27.564Z,30.71
2022-09-10T10:30:59.192Z,30.75
2022-09-10T10:33:29.824Z,30.85
2022-09-10T10:36:07.637Z,30.98
2022-09-10T10:38:40.372Z,30.92
2022-09-10T10:41:29.749Z,30.88
2022-09-10T10:44:10.211Z,30.67
2022-09-10T10:46:46.004Z,30.79
2022-09-10T10:49:27.012Z,30.85
2022-09-10T10:52:05.554Z,31.01
2022-09-10T10:54:57.657Z,31.10
2022-09-10T10:57:40.513Z,31.15
2022-09-10T11:00:12.320Z,30.90
2022-09-10T11:02:46.749Z,30.84
2022-09-10T11:05:25.810Z,31.01
2022-09-10T11:07:56.500Z,30.81
2022-09-10T11:10:32.943Z,30.64
2022-09-10T11:13:09.411Z,30.81
2022-09-10T11:15:43.543Z,30.83
2022-09-10T11:18:19.464Z,30.96
2022-09-10T11:20:54.462Z,30.87
2022-09-10T11:23:30.823Z,31.03
2022-09-10T11:26:07.166Z,31.13
2022-09-10T11:28:39.835Z,31.17
2022-09-10T11:31:15.406Z,31.23
2022-09-10T11:33:53.416Z,31.18
2022-09-10T11:36:28.230Z,31.27
2022-09-10T11:39:09.354Z,31.08
2022-09-10T11:41:43.281Z,31.47
2022-09-10T11:44:26.639Z,31.55
2022-09-10T11:47:04.225Z,31.59
2022-09-10T11:49:43.260Z,31.72
2022-09-10T11:52:12.595Z,31.60
2022-09-10T11:54:42.308Z,31.88
2022-09-10T11:57:23.331Z,32.06
2022-09-10T12:00:15.827Z,32.09
2022-09-10T12:03:13.810Z,32.06
2022-09-10T12:05:54.405Z,32.09
2022-09-10T12:08:34.018Z,32.17
2022-09-10T12:11:14.088Z,32.17
2022-09-10T12:13:45.776Z,32.10
2022-09-10T12:16:22.393Z,32.00
2022-09-10T12:18:53.061Z,31.91
2022-09-10T12:21:32.504Z,31.94
2022-09-10T12:24:03.290Z,31.85
2022-09-10T12:26:41.551Z,31.95
2022-09-10T12:29:27.799Z,31.86
2022-09-10T12:32:37.106Z,31.81
2022-09-10T12:35:46.265Z,31.60
2022-09-10T12:38:49.794Z,31.44
2022-09-10T12:41:36.185Z,31.26
2022-09-10T12:44:05.868Z,30.94
2022-09-10T12:46:35.512Z,30.84
2022-09-10T12:49:11.938Z,30.79
2022-09-10T12:51:56.789Z,30.71
2022-09-10T12:54:44.683Z,30.70
2022-09-10T12:57:31.635Z,30.57
2022-09-10T13:00:18.702Z,30.51
2022-09-10T13:02:58.843Z,30.35
2022-09-10T13:05:33.171Z,30.37
2022-09-10T13:08:20.624Z,30.41
2022-09-10T13:11:06.416Z,30.40
2022-09-10T13:13:38.825Z,30.40
2022-09-10T13:16:15.673Z,30.48
2022-09-10T13:18:46.732Z,30.33
2022-09-10T13:21:52.416Z,29.72
2022-09-10T13:24:59.660Z,29.48
2022-09-10T13:27:38.015Z,29.56
2022-09-10T13:30:17.446Z,29.45
2022-09-10T13:32:48.853Z,29.38
2022-09-10T13:35:42.313Z,29.32
2022-09-10T13:38:19.590Z,28.97
2022-09-10T13:41:02.781Z,28.91
2022-09-10T13:43:47.922Z,28.74
2022-09-10T13:46:24.668Z,28.41
2022-09-10T13:48:58.551Z,28.46
2022-09-10T13:51:34.889Z,28.47
2022-09-10T13:54:09.313Z,28.37
2022-09-10T13:56:38.925Z,28.62
2022-09-10T13:59:08.217Z,28.67
2022-09-10T14:01:50.563Z,28.76
2022-09-10T14:04:31.879Z,28.67
2022-09-10T14:07:05.562Z,28.56
2022-09-10T14:09:35.289Z,28.67
2022-09-10T14:12:05.874Z,28.52
2022-09-10T14:14:39.895Z,28.32
2022-09-10T14:17:12.622Z,28.66
2022-09-10T14:19:49.385Z,28.80
2022-09-10T14:22:22.350Z,28.83
2022-09-10T14:24:53.794Z,29.02
2022-09-10T14:27:25.924Z,29.05
2022-09-10T14:29:57.444Z,28.95
2022-09-10T14:32:33.550Z,28.73
2022-09-10T14:35:37.769Z,28.60
2022-09-10T14:38:23.164Z,28.58
2022-09-10T14:40:56.065Z,28.51
2022-09-10T14:43:30.549Z,28.33
2022-09-10T14:45:58.925Z,28.10
2022-09-10T14:48:29.830Z,28.01
2022-09-10T14:51:10.660Z,27.83
2022-09-10T14:53:42.143Z,27.74
2022-09-10T14:56:23.061Z,27.55
2022-09-10T14:58:59.337Z,27.55
2022-09-10T15:01:27.630Z,27.55
2022-09-10T15:03:55.640Z,27.63
2022-09-10T15:06:26.340Z,27.82
2022-09-10T15:08:57.184Z,27.77
2022-09-10T15:11:27.421Z,27.67
2022-09-10T15:13:58.851Z,27.71
2022-09-10T15:16:26.862Z,27.73
2022-09-10T15:18:54.784Z,27.57
2022-09-10T15:21:23.146Z,27.76
2022-09-10T15:23:51.097Z,27.94
2022-09-10T15:26:20.930Z,27.97
2022-09-10T15:28:48.902Z,28.03
2022-09-10T15:31:18.393Z,27.98
2022-09-10T15:33:46.402Z,28.06
2022-09-10T15:36:14.331Z,28.10
2022-09-10T15:38:42.727Z,28.05
2022-09-10T15:41:13.003Z,27.97
2022-09-10T15:43:44.313Z,27.80
2022-09-10T15:46:13.566Z,27.74
2022-09-10T15:48:41.894Z,27.77
2022-09-10T15:51:14.930Z,27.76
2022-09-10T15:53:43.715Z,27.68
2022-09-10T15:56:12.934Z,27.68
2022-09-10T15:58:43.421Z,27.50
2022-09-10T16:01:13.055Z,27.54
2022-09-10T16:03:46.451Z,27.43
2022-09-10T16:06:14.474Z,27.47
2022-09-10T16:08:42.995Z,27.53
2022-09-10T16:11:12.901Z,27.48
2022-09-10T16:13:43.728Z,27.43
2022-09-10T16:16:15.669Z,27.33
2022-09-10T16:18:43.906Z,27.37
2022-09-10T16:21:15.674Z,27.39
2022-09-10T16:23:44.470Z,27.46
2022-09-10T16:26:16.055Z,26.90
2022-09-10T16:28:49.940Z,26.77
2022-09-10T16:31:19.598Z,26.80
2022-09-10T16:33:51.691Z,26.60
2022-09-10T16:36:22.421Z,26.68
2022-09-10T16:38:54.256Z,26.46
2022-09-10T16:41:23.441Z,26.68
2022-09-10T16:43:53.694Z,26.43
2022-09-10T16:46:21.628Z,26.14
2022-09-10T16:48:53.178Z,26.07
2022-09-10T16:51:23.613Z,26.21
2022-09-10T16:53:56.944Z,26.03
2022-09-10T16:56:26.657Z,25.99
2022-09-10T16:58:55.947Z,25.96
2022-09-10T17:01:23.928Z,25.74
2022-09-10T17:03:52.421Z,25.88
2022-09-10T17:06:22.146Z,25.88
2022-09-10T17:08:50.235Z,25.89
2022-09-10T17:11:19.967Z,25.66
2022-09-10T17:13:48.323Z,25.61
2022-09-10T17:16:24.906Z,25.68
2022-09-10T17:18:57.485Z,25.59
2022-09-10T17:21:26.529Z,25.57
2022-09-10T17:23:55.419Z,25.66
2022-09-10T17:26:24.267Z,25.54
2022-09-10T17:28:56.510Z,25.53
2022-09-10T17:31:27.523Z,25.29
2022-09-10T17:33:56.718Z,25.28
2022-09-10T17:36:26.390Z,25.22
2022-09-10T17:38:54.775Z,25.13
2022-09-10T17:41:24.359Z,25.13
2022-09-10T17:43:52.522Z,25.19
2022-09-10T17:46:23.485Z,25.12
2022-09-10T17:48:54.220Z,25.13
2022-09-10T17:51:24.270Z,25.09
2022-09-10T17:53:53.056Z,24.46
2022-09-10T17:56:21.855Z,24.28
2022-09-10T17:58:50.952Z,24.22
2022-09-10T18:01:23.684Z,24.37
2022-09-10T18:03:53.626Z,24.20
2022-09-10T18:06:22.496Z,24.12
2022-09-10T18:08:50.507Z,24.02
2022-09-10T18:11:21.255Z,23.92
2022-09-10T18:13:51.629Z,23.75
2022-09-10T18:16:22.464Z,23.70
2022-09-10T18:18:55.582Z,23.67
2022-09-10T18:21:26.019Z,23.65
2022-09-10T18:23:55.777Z,23.66
2022-09-10T18:26:25.482Z,23.68
2022-09-10T18:28:55.889Z,23.66
2022-09-10T18:31:25.252Z,23.70
2022-09-10T18:33:55.815Z,23.76
2022-09-10T18:36:25.594Z,23.62
2022-09-10T18:38:53.990Z,23.59
2022-09-10T18:41:24.271Z,23.61
2022-09-10T18:43:53.902Z,23.56
2022-09-10T18:46:23.606Z,23.47
2022-09-10T18:48:52.354Z,23.50
2022-09-10T18:51:24.821Z,23.43
2022-09-10T18:53:54.293Z,23.43
2022-09-10T18:56:25.430Z,23.31
2022-09-10T18:58:55.869Z,23.35
2022-09-10T19:01:25.306Z,23.34
2022-09-10T19:03:53.447Z,23.34
2022-09-10T19:06:25.634Z,23.36
2022-09-10T19:08:55.561Z,23.38
2022-09-10T19:11:24.557Z,23.36
2022-09-10T19:13:54.123Z,23.34
2022-09-10T19:16:24.378Z,23.27
2022-09-10T19:18:53.698Z,23.23
2022-09-10T19:21:24.577Z,23.15
2022-09-10T19:23:59.458Z,23.06
2022-09-10T19:26:29.962Z,23.14
2022-09-10T19:28:58.916Z,22.96
2022-09-10T19:31:28.488Z,23.07
2022-09-10T19:33:57.726Z,22.88
2022-09-10T19:36:28.562Z,22.78
2022-09-10T19:38:56.503Z,22.81
2022-09-10T19:41:25.628Z,22.79
2022-09-10T19:43:55.245Z,22.82
2022-09-10T19:46:25.236Z,22.82
2022-09-10T19:48:53.347Z,22.76
2022-09-10T19:51:21.827Z,22.74
2022-09-10T19:53:51.527Z,22.74
2022-09-10T19:56:21.853Z,22.70
2022-09-10T19:58:51.786Z,22.69
2022-09-10T20:01:21.944Z,22.64
2022-09-10T20:03:50.814Z,22.66
2022-09-10T20:06:21.459Z,22.56
2022-09-10T20:08:50.871Z,22.55
2022-09-10T20:11:21.220Z,22.57
2022-09-10T20:13:50.039Z,22.55
2022-09-10T20:16:18.366Z,22.52
2022-09-10T20:18:46.734Z,22.47
2022-09-10T20:21:16.602Z,22.44
2022-09-10T20:23:46.497Z,22.45
2022-09-10T20:26:17.503Z,22.48
2022-09-10T20:28:45.675Z,22.47
2022-09-10T20:31:14.354Z,22.37
2022-09-10T20:33:43.637Z,22.39
2022-09-10T20:36:15.206Z,22.20
2022-09-10T20:38:43.599Z,22.41
2022-09-10T20:41:13.153Z,22.38
2022-09-10T20:43:42.896Z,22.22
2022-09-10T20:46:16.055Z,22.33
2022-09-10T20:48:49.047Z,22.30
2022-09-10T20:51:18.287Z,22.25
2022-09-10T20:53:46.926Z,22.28
2022-09-10T20:56:17.693Z,22.24
2022-09-10T20:58:48.063Z,22.17
2022-09-10T21:01:18.995Z,22.13
2022-09-10T21:03:47.710Z,22.12
2022-09-10T21:06:19.410Z,22.08
2022-09-10T21:08:50.105Z,22.10
2022-09-10T21:11:19.971Z,22.00
2022-09-10T21:13:51.069Z,22.02
2022-09-10T21:16:20.702Z,21.95
2022-09-10T21:18:53.739Z,21.95
2022-09-10T21:21:25.742Z,21.90
2022-09-10T21:23:55.482Z,21.95
2022-09-10T21:26:26.285Z,21.97
2022-09-10T21:28:57.461Z,21.95
2022-09-10T21:31:26.114Z,21.90
2022-09-10T21:33:59.408Z,21.82
2022-09-10T21:36:30.767Z,21.72
2022-09-10T21:39:00.180Z,21.55
2022-09-10T21:41:31.276Z,21.71
2022-09-10T21:44:01.309Z,21.65
2022-09-10T21:46:29.816Z,21.59
2022-09-10T21:48:58.286Z,21.55
2022-09-10T21:51:26.519Z,21.55
2022-09-10T21:53:56.383Z,21.54
2022-09-10T21:56:26.048Z,21.49
2022-09-10T21:58:54.511Z,21.50
2022-09-10T22:01:25.822Z,21.53
2022-09-10T22:03:54.878Z,21.39
2022-09-10T22:06:24.133Z,21.45
2022-09-10T22:08:53.846Z,21.50
2022-09-10T22:11:24.369Z,21.49
2022-09-10T22:13:53.911Z,21.15
2022-09-10T22:16:23.690Z,21.39
2022-09-10T22:18:52.543Z,21.37
2022-09-10T22:21:20.906Z,21.36
2022-09-10T22:23:51.846Z,21.36
2022-09-10T22:26:21.966Z,21.42
2022-09-10T22:28:52.766Z,21.34
2022-09-10T22:31:22.282Z,21.35
2022-09-10T22:33:55.897Z,21.26
2022-09-10T22:36:24.769Z,21.18
2022-09-10T22:38:54.347Z,21.15
2022-09-10T22:41:23.263Z,21.08
2022-09-10T22:43:51.606Z,21.10
2022-09-10T22:46:20.436Z,21.13
2022-09-10T22:48:48.846Z,21.13
2022-09-10T22:51:20.212Z,21.15
2022-09-10T22:53:48.399Z,21.07
2022-09-10T22:56:17.740Z,21.02
2022-09-10T22:58:46.343Z,21.04
2022-09-10T23:01:17.082Z,21.14
2022-09-10T23:03:45.940Z,21.03
2022-09-10T23:06:15.817Z,21.09
2022-09-10T23:08:46.738Z,20.99
2022-09-10T23:11:17.323Z,21.03
2022-09-10T23:13:46.728Z,20.98
2022-09-10T23:16:17.176Z,20.91
2022-09-10T23:18:50.628Z,20.72
2022-09-10T23:21:19.491Z,20.94
2022-09-10T23:23:50.334Z,20.93
2022-09-10T23:26:18.810Z,20.77
2022-09-10T23:28:47.319Z,20.71
2022-09-10T23:31:17.440Z,20.78
2022-09-10T23:33:47.128Z,20.68
2022-09-10T23:36:15.634Z,20.74
2022-09-10T23:38:43.904Z,20.75
2022-09-10T23:41:13.536Z,20.73
2022-09-10T23:43:41.685Z,20.60
2022-09-10T23:46:10.742Z,20.68
2022-09-10T23:48:39.411Z,20.69
2022-09-10T23:51:08.177Z,20.67
2022-09-10T23:53:36.098Z,20.73
2022-09-10T23:56:04.928Z,20.79
2022-09-10T23:58:34.501Z,20.77
